KCAV

Clarion Municipal Airport

Clarion, Iowa, USA
METAR KCAV 241215Z AUTO 10011KT 7SM CLR M09/M09 A3008 RMK AO2 PWINO
Observed Flight Rules
Feb-24 @ 12:15 UTC (8 minutes ago) Visual Flight Rules
Wind Visibility Clouds
100° at 11 knots 7 miles
  • Clear skies
Temperatures Readings
Current -9°C / 16°F
Dewpoint -9°C / 16°F
Humidity 100%
Altimeter 30.08" Hg
Pressure 1019 hPa
Elevation 354
METAR KCAV 241215Z AUTO 10011KT 7SM CLR M09/M09 A3008 RMK AO2 PWINO
Observed Flight Rules
Feb-24 @ 12:15 UTC
(8 minutes ago)
VFR
Wind Visibility
100° at 11 knots 7 miles
Clouds
  • Clear skies
Temperature Dewpoint
-9°C / 16°F -9°C / 16°F
Humidity Altimeter Pressure
100% 30.08" Hg 1019 hPa